createdAt,value
2018-02-22T00:01:26.888Z,82.20
2018-02-22T00:03:54.482Z,82.10
2018-02-22T00:06:22.016Z,82.00
2018-02-22T00:08:49.604Z,82.10
2018-02-22T00:11:17.131Z,82.10
2018-02-22T00:13:44.686Z,81.90
2018-02-22T00:16:12.234Z,82.00
2018-02-22T00:18:40.560Z,82.10
2018-02-22T00:21:08.137Z,82.10
2018-02-22T00:23:35.719Z,82.10
2018-02-22T00:26:03.223Z,82.00
2018-02-22T00:28:31.542Z,82.20
2018-02-22T00:30:59.072Z,82.20
2018-02-22T00:33:26.624Z,82.20
2018-02-22T00:35:54.912Z,82.40
2018-02-22T00:38:22.473Z,82.40
2018-02-22T00:40:50.021Z,82.60
2018-02-22T00:43:17.547Z,82.60
2018-02-22T00:45:45.142Z,82.60
2018-02-22T00:48:12.671Z,83.60
2018-02-22T00:50:40.279Z,83.00
2018-02-22T00:53:07.834Z,83.40
2018-02-22T00:55:35.388Z,83.40
2018-02-22T00:58:02.977Z,83.50
2018-02-22T01:00:30.492Z,83.60
2018-02-22T01:02:58.771Z,83.80
2018-02-22T01:05:26.356Z,83.70
2018-02-22T01:07:53.899Z,84.50
2018-02-22T01:10:21.548Z,83.80
2018-02-22T01:12:49.107Z,84.50
2018-02-22T01:15:16.668Z,84.00
2018-02-22T01:17:45.897Z,84.20
2018-02-22T01:20:13.534Z,84.20
2018-02-22T01:22:41.064Z,84.30
2018-02-22T01:25:08.627Z,84.60
2018-02-22T01:27:36.216Z,84.80
2018-02-22T01:30:03.756Z,84.70
2018-02-22T01:32:32.041Z,84.80
2018-02-22T01:35:00.361Z,84.90
2018-02-22T01:37:27.899Z,84.70
2018-02-22T01:39:55.460Z,84.60
2018-02-22T01:42:22.981Z,84.70
2018-02-22T01:44:51.295Z,84.70
2018-02-22T01:47:18.822Z,84.70
2018-02-22T01:49:47.172Z,84.70
2018-02-22T01:52:14.688Z,84.70
2018-02-22T01:54:42.256Z,84.70
2018-02-22T01:57:09.805Z,84.80
2018-02-22T01:59:37.343Z,84.50
2018-02-22T02:02:05.622Z,84.40
2018-02-22T02:04:34.006Z,84.60
2018-02-22T02:07:01.559Z,84.60
2018-02-22T02:09:29.852Z,84.80
2018-02-22T02:11:57.384Z,84.70
2018-02-22T02:14:25.698Z,84.50
2018-02-22T02:16:53.223Z,84.40
2018-02-22T02:19:21.555Z,84.40
2018-02-22T02:21:49.081Z,84.30
2018-02-22T02:24:16.640Z,84.10
2018-02-22T02:26:44.143Z,84.20
2018-02-22T02:29:11.675Z,84.10
2018-02-22T02:31:39.204Z,84.20
2018-02-22T02:34:06.746Z,84.30
2018-02-22T02:36:35.349Z,84.80
2018-02-22T02:39:02.872Z,84.10
2018-02-22T02:41:30.396Z,83.60
2018-02-22T02:43:57.951Z,83.60
2018-02-22T02:46:25.470Z,83.80
2018-02-22T02:48:53.795Z,83.80
2018-02-22T02:51:21.325Z,83.80
2018-02-22T02:53:48.871Z,83.90
2018-02-22T02:56:17.159Z,84.10
2018-02-22T02:58:44.724Z,84.10
2018-02-22T03:01:12.240Z,83.80
2018-02-22T03:03:39.774Z,84.00
2018-02-22T03:06:07.289Z,84.20
2018-02-22T03:08:34.827Z,84.00
2018-02-22T03:11:02.430Z,84.10
2018-02-22T03:13:30.026Z,84.10
2018-02-22T03:15:57.642Z,83.60
2018-02-22T03:18:25.181Z,82.70
2018-02-22T03:20:53.493Z,82.80
2018-02-22T03:23:21.046Z,82.70
2018-02-22T03:25:48.554Z,82.80
2018-02-22T03:28:16.148Z,82.90
2018-02-22T03:30:43.677Z,82.90
2018-02-22T03:33:11.217Z,83.00
2018-02-22T03:35:38.741Z,83.30
2018-02-22T03:38:06.288Z,82.60
2018-02-22T03:40:33.806Z,82.30
2018-02-22T03:43:01.367Z,82.00
2018-02-22T03:45:29.072Z,82.10
2018-02-22T03:47:56.653Z,81.60
2018-02-22T03:50:24.171Z,81.60
2018-02-22T03:52:52.560Z,81.50
2018-02-22T03:55:20.124Z,81.40
2018-02-22T03:57:47.664Z,81.40
2018-02-22T04:00:15.944Z,81.30
2018-02-22T04:02:44.239Z,81.40
2018-02-22T04:05:11.763Z,81.30
2018-02-22T04:07:40.158Z,81.70
2018-02-22T04:10:08.564Z,81.10
2018-02-22T04:12:36.093Z,81.10
2018-02-22T04:15:04.382Z,81.20
2018-02-22T04:17:31.946Z,81.00
2018-02-22T04:19:59.460Z,81.10
2018-02-22T04:22:26.996Z,81.10
2018-02-22T04:24:54.626Z,80.90
2018-02-22T04:27:22.169Z,80.80
2018-02-22T04:29:50.532Z,80.90
2018-02-22T04:32:18.129Z,80.90
2018-02-22T04:34:45.640Z,80.80
2018-02-22T04:37:13.182Z,80.60
2018-02-22T04:39:40.715Z,80.60
2018-02-22T04:42:08.339Z,80.60
2018-02-22T04:44:36.635Z,79.90
2018-02-22T04:47:04.138Z,79.80
2018-02-22T04:49:31.750Z,79.50
2018-02-22T04:51:59.331Z,79.40
2018-02-22T04:54:26.971Z,79.60
2018-02-22T04:56:54.541Z,79.70
2018-02-22T04:59:22.148Z,79.80
2018-02-22T05:01:49.668Z,80.00
2018-02-22T05:04:17.322Z,80.10
2018-02-22T05:06:44.844Z,80.00
2018-02-22T05:09:12.398Z,80.40
2018-02-22T05:11:39.897Z,80.50
2018-02-22T05:14:07.466Z,80.70
2018-02-22T05:16:35.729Z,81.10
2018-02-22T05:19:03.264Z,81.00
2018-02-22T05:21:31.623Z,81.10
2018-02-22T05:23:59.241Z,81.10
2018-02-22T05:26:26.778Z,81.10
2018-02-22T05:28:54.376Z,81.10
2018-02-22T05:31:22.009Z,81.10
2018-02-22T05:33:49.519Z,81.10
2018-02-22T05:36:17.065Z,81.10
2018-02-22T05:38:44.601Z,81.20
2018-02-22T05:41:12.144Z,81.30
2018-02-22T05:43:39.666Z,81.40
2018-02-22T05:46:07.198Z,81.20
2018-02-22T05:48:34.717Z,81.20
2018-02-22T05:51:02.253Z,81.00
2018-02-22T05:53:30.630Z,81.10
2018-02-22T05:55:58.940Z,81.20
2018-02-22T05:58:26.452Z,81.20
2018-02-22T06:00:54.012Z,81.40
2018-02-22T06:03:21.523Z,81.20
2018-02-22T06:05:49.070Z,81.10
2018-02-22T06:08:16.578Z,81.30
2018-02-22T06:10:44.124Z,81.40
2018-02-22T06:13:11.788Z,81.40
2018-02-22T06:15:39.351Z,81.40
2018-02-22T06:18:06.877Z,81.20
2018-02-22T06:20:34.528Z,80.80
2018-02-22T06:23:02.121Z,80.60
2018-02-22T06:25:29.672Z,93.60
2018-02-22T06:27:57.185Z,81.50
2018-02-22T06:30:25.491Z,81.10
2018-02-22T06:32:53.027Z,81.10
2018-02-22T06:35:20.550Z,81.00
2018-02-22T06:37:48.105Z,81.10
2018-02-22T06:40:15.711Z,81.00
2018-02-22T06:42:43.274Z,80.80
2018-02-22T06:45:10.825Z,79.70
2018-02-22T06:47:39.236Z,78.20
2018-02-22T06:50:06.788Z,78.20
2018-02-22T06:52:34.303Z,77.90
2018-02-22T06:55:02.609Z,79.90
2018-02-22T06:57:30.172Z,79.70
2018-02-22T06:59:57.700Z,78.50
2018-02-22T07:02:25.996Z,78.90
2018-02-22T07:04:54.307Z,78.80
2018-02-22T07:07:21.803Z,78.80
2018-02-22T07:09:49.366Z,78.30
2018-02-22T07:12:16.964Z,77.90
2018-02-22T07:14:44.504Z,76.80
2018-02-22T07:17:12.785Z,72.30
2018-02-22T07:19:41.096Z,69.90
2018-02-22T07:22:08.609Z,69.80
2018-02-22T07:24:37.011Z,67.30
2018-02-22T07:27:04.519Z,67.30
2018-02-22T07:29:32.828Z,63.30
2018-02-22T07:32:01.136Z,62.90
2018-02-22T07:34:28.661Z,62.80
2018-02-22T07:36:56.963Z,59.90
2018-02-22T07:39:24.488Z,59.80
2018-02-22T07:41:52.786Z,57.90
2018-02-22T07:44:20.330Z,57.90
2018-02-22T07:46:48.592Z,56.10
2018-02-22T07:49:16.116Z,56.10
2018-02-22T07:51:43.633Z,55.10
2018-02-22T07:54:11.161Z,54.60
2018-02-22T07:56:39.627Z,53.00
2018-02-22T07:59:07.173Z,53.00
2018-02-22T08:01:34.816Z,52.40
2018-02-22T08:04:02.385Z,52.00
2018-02-22T08:06:29.898Z,50.60
2018-02-22T08:08:58.199Z,47.70
2018-02-22T08:11:25.720Z,47.60
2018-02-22T08:13:53.260Z,48.20
2018-02-22T08:16:20.878Z,46.50
2018-02-22T08:18:49.158Z,45.20
2018-02-22T08:21:16.676Z,45.70
2018-02-22T08:23:45.028Z,42.30
2018-02-22T08:26:12.532Z,42.20
2018-02-22T08:28:49.995Z,41.40
2018-02-22T08:31:17.515Z,40.00
2018-02-22T08:33:45.145Z,39.60
2018-02-22T08:36:12.669Z,40.30
2018-02-22T08:38:40.237Z,39.50
2018-02-22T08:41:08.535Z,38.60
2018-02-22T08:43:36.073Z,38.50
2018-02-22T08:46:04.366Z,37.40
2018-02-22T08:48:31.940Z,37.30
2018-02-22T08:50:59.467Z,35.10
2018-02-22T08:53:27.775Z,39.20
2018-02-22T08:55:55.289Z,39.20
2018-02-22T08:58:22.819Z,41.80
2018-02-22T09:00:50.352Z,43.00
2018-02-22T09:03:17.900Z,42.70
2018-02-22T09:05:45.504Z,43.00
2018-02-22T09:08:13.106Z,42.40
2018-02-22T09:10:41.398Z,40.90
2018-02-22T09:13:08.944Z,40.90
2018-02-22T09:15:36.466Z,41.20
2018-02-22T09:18:04.071Z,40.60
2018-02-22T09:20:31.611Z,40.40
2018-02-22T09:22:59.919Z,40.60
2018-02-22T09:25:27.468Z,40.60
2018-02-22T09:27:54.984Z,38.20
2018-02-22T09:30:22.576Z,41.40
2018-02-22T09:32:50.136Z,42.20
2018-02-22T09:35:17.666Z,41.10
2018-02-22T09:37:45.972Z,39.60
2018-02-22T09:40:13.501Z,39.50
2018-02-22T09:42:41.777Z,39.00
2018-02-22T09:45:10.084Z,39.20
2018-02-22T09:47:37.645Z,38.50
2018-02-22T09:50:05.357Z,36.70
2018-02-22T09:52:32.970Z,39.20
2018-02-22T09:55:00.632Z,39.60
2018-02-22T09:57:28.204Z,39.60
2018-02-22T09:59:55.784Z,40.00
2018-02-22T10:02:23.299Z,39.70
2018-02-22T10:04:50.834Z,40.20
2018-02-22T10:07:19.198Z,41.70
2018-02-22T10:09:46.756Z,41.70
2018-02-22T10:12:14.279Z,41.30
2018-02-22T10:14:41.841Z,41.50
2018-02-22T10:17:09.403Z,40.50
2018-02-22T10:19:36.961Z,40.70
2018-02-22T10:22:04.556Z,40.90
2018-02-22T10:24:32.876Z,41.70
2018-02-22T10:27:00.451Z,41.30
2018-02-22T10:29:27.977Z,39.80
2018-02-22T10:31:55.496Z,38.80
2018-02-22T10:34:23.068Z,37.50
2018-02-22T10:36:51.430Z,36.50
2018-02-22T10:39:19.740Z,39.00
2018-02-22T10:41:47.319Z,38.90
2018-02-22T10:44:14.858Z,40.00
2018-02-22T10:46:42.430Z,39.80
2018-02-22T10:49:10.814Z,36.80
2018-02-22T10:51:38.331Z,36.70
2018-02-22T10:54:05.941Z,37.50
2018-02-22T10:56:33.443Z,37.80
2018-02-22T10:59:00.976Z,39.60
2018-02-22T11:01:34.097Z,39.80
2018-02-22T11:04:01.648Z,38.80
2018-02-22T11:06:29.306Z,37.30
2018-02-22T11:08:56.922Z,39.10
2018-02-22T11:11:24.452Z,37.90
2018-02-22T11:13:52.829Z,38.40
2018-02-22T11:16:20.395Z,38.40
2018-02-22T11:18:48.702Z,37.90
2018-02-22T11:21:16.228Z,37.90
2018-02-22T11:23:44.580Z,40.20
2018-02-22T11:26:12.153Z,40.20
2018-02-22T11:28:40.487Z,38.50
2018-02-22T11:31:08.015Z,38.50
2018-02-22T11:33:35.600Z,39.00
2018-02-22T11:36:03.118Z,38.80
2018-02-22T11:38:31.539Z,38.00
2018-02-22T11:40:59.091Z,38.00
2018-02-22T11:43:26.725Z,36.90
2018-02-22T11:45:54.254Z,39.70
2018-02-22T11:48:21.806Z,38.50
2018-02-22T11:50:49.422Z,37.50
2018-02-22T11:53:16.979Z,36.20
2018-02-22T11:55:44.594Z,36.90
2018-02-22T11:58:12.145Z,37.50
2018-02-22T12:00:39.707Z,39.20
2018-02-22T12:03:07.240Z,39.90
2018-02-22T12:05:34.796Z,39.10
2018-02-22T12:08:02.346Z,38.90
2018-02-22T12:10:29.870Z,40.20
2018-02-22T12:12:58.196Z,40.80
2018-02-22T12:15:25.724Z,40.80
2018-02-22T12:17:53.272Z,41.50
2018-02-22T12:20:21.583Z,41.80
2018-02-22T12:22:49.244Z,41.80
2018-02-22T12:25:16.800Z,42.20
2018-02-22T12:27:44.966Z,43.30
2018-02-22T12:30:12.557Z,42.70
2018-02-22T12:32:40.841Z,43.70
2018-02-22T12:35:08.936Z,43.70
2018-02-22T12:37:38.499Z,43.80
2018-02-22T12:40:06.041Z,43.70
2018-02-22T12:42:33.548Z,42.20
2018-02-22T12:45:01.104Z,43.00
2018-02-22T12:47:28.616Z,42.50
2018-02-22T12:49:56.155Z,42.60
2018-02-22T12:52:23.664Z,42.80
2018-02-22T12:54:51.204Z,42.20
2018-02-22T12:57:18.749Z,42.80
2018-02-22T12:59:46.327Z,41.90
2018-02-22T13:02:13.905Z,42.30
2018-02-22T13:04:41.446Z,42.80
2018-02-22T13:07:08.969Z,42.90
2018-02-22T13:09:37.286Z,43.30
2018-02-22T13:12:04.813Z,43.20
2018-02-22T13:14:32.343Z,44.70
2018-02-22T13:17:00.765Z,44.00
2018-02-22T13:19:28.322Z,43.90
2018-02-22T13:21:55.868Z,44.00
2018-02-22T13:24:23.408Z,44.30
2018-02-22T13:26:50.938Z,43.50
2018-02-22T13:29:19.823Z,41.20
2018-02-22T13:31:47.355Z,40.60
2018-02-22T13:34:26.842Z,41.10
2018-02-22T13:36:54.384Z,40.30
2018-02-22T13:39:22.032Z,42.00
2018-02-22T13:41:49.557Z,42.10
2018-02-22T13:44:28.926Z,41.70
2018-02-22T13:46:56.443Z,41.70
2018-02-22T13:49:35.823Z,41.60
2018-02-22T13:52:03.395Z,43.00
2018-02-22T13:54:31.016Z,42.20
2018-02-22T13:57:08.350Z,42.50
2018-02-22T13:59:35.883Z,42.00
2018-02-22T14:02:15.370Z,42.20
2018-02-22T14:04:43.782Z,43.40
2018-02-22T14:07:11.348Z,43.30
2018-02-22T14:09:39.023Z,43.90
2018-02-22T14:12:06.576Z,44.00
2018-02-22T14:14:34.219Z,43.60
2018-02-22T14:17:01.736Z,44.20
2018-02-22T14:19:29.352Z,43.50
2018-02-22T14:21:56.883Z,43.80
2018-02-22T14:24:25.283Z,44.00
2018-02-22T14:26:52.833Z,44.00
2018-02-22T14:29:20.350Z,45.30
2018-02-22T14:31:48.068Z,45.00
2018-02-22T14:34:15.628Z,45.00
2018-02-22T14:36:43.159Z,45.60
2018-02-22T14:39:11.446Z,45.10
2018-02-22T14:41:39.003Z,45.10
2018-02-22T14:44:06.526Z,45.40
2018-02-22T14:46:34.050Z,46.00
2018-02-22T14:49:01.600Z,46.30
2018-02-22T14:51:29.225Z,45.80
2018-02-22T14:53:57.740Z,45.80
2018-02-22T14:56:25.297Z,45.80
2018-02-22T14:58:52.833Z,46.60
2018-02-22T15:01:21.152Z,46.80
2018-02-22T15:03:48.660Z,46.80
2018-02-22T15:06:17.570Z,47.00
2018-02-22T15:08:46.103Z,47.00
2018-02-22T15:11:13.717Z,47.00
2018-02-22T15:13:41.218Z,47.20
2018-02-22T15:16:08.796Z,47.30
2018-02-22T15:18:36.313Z,47.80
2018-02-22T15:21:04.037Z,48.20
2018-02-22T15:23:32.396Z,46.90
2018-02-22T15:26:00.063Z,46.30
2018-02-22T15:28:27.622Z,46.60
2018-02-22T15:30:56.046Z,47.20
2018-02-22T15:33:23.697Z,47.20
2018-02-22T15:35:51.268Z,47.10
2018-02-22T15:38:18.839Z,47.30
2018-02-22T15:40:46.376Z,47.50
2018-02-22T15:43:14.024Z,48.00
2018-02-22T15:45:41.597Z,48.20
2018-02-22T15:48:09.179Z,49.50
2018-02-22T15:50:36.706Z,48.30
2018-02-22T15:53:04.284Z,48.30
2018-02-22T15:55:31.860Z,48.60
2018-02-22T15:57:59.455Z,48.10
2018-02-22T16:00:26.986Z,48.10
2018-02-22T16:02:54.523Z,49.70
2018-02-22T16:05:22.062Z,53.70
2018-02-22T16:07:49.596Z,50.60
2018-02-22T16:10:17.171Z,47.60
2018-02-22T16:12:45.516Z,48.90
2018-02-22T16:15:13.051Z,48.80
2018-02-22T16:17:40.619Z,49.30
2018-02-22T16:20:08.144Z,49.50
2018-02-22T16:22:35.671Z,49.80
2018-02-22T16:25:03.275Z,50.30
2018-02-22T16:27:30.815Z,50.30
2018-02-22T16:29:58.394Z,50.10
2018-02-22T16:32:25.964Z,50.40
2018-02-22T16:34:53.490Z,50.70
2018-02-22T16:37:21.819Z,50.80
2018-02-22T16:39:49.373Z,50.80
2018-02-22T16:42:16.973Z,51.30
2018-02-22T16:44:45.259Z,51.80
2018-02-22T16:47:13.593Z,50.40
2018-02-22T16:49:41.094Z,50.40
2018-02-22T16:52:09.397Z,50.80
2018-02-22T16:54:37.011Z,50.70
2018-02-22T16:57:04.571Z,50.70
2018-02-22T16:59:32.106Z,50.90
2018-02-22T17:01:59.659Z,51.60
2018-02-22T17:04:27.195Z,51.50
2018-02-22T17:06:54.811Z,51.60
2018-02-22T17:09:23.106Z,52.10
2018-02-22T17:11:51.498Z,53.70
2018-02-22T17:14:19.031Z,53.60
2018-02-22T17:16:47.352Z,52.70
2018-02-22T17:19:14.889Z,52.50
2018-02-22T17:21:42.483Z,52.30
2018-02-22T17:24:09.996Z,52.60
2018-02-22T17:26:43.880Z,52.80
2018-02-22T17:29:16.926Z,52.90
2018-02-22T17:31:50.146Z,52.90
2018-02-22T17:34:17.688Z,53.00
2018-02-22T17:36:49.860Z,53.00
2018-02-22T17:39:23.079Z,53.30
2018-02-22T17:41:51.447Z,53.50
2018-02-22T17:44:18.985Z,53.40
2018-02-22T17:46:46.548Z,53.50
2018-02-22T17:49:14.056Z,53.60
2018-02-22T17:51:42.367Z,54.00
2018-02-22T17:54:09.934Z,54.00
2018-02-22T17:56:37.486Z,53.90
2018-02-22T17:59:05.058Z,54.10
2018-02-22T18:01:32.608Z,54.00
2018-02-22T18:04:01.144Z,54.10
2018-02-22T18:06:29.443Z,54.20
2018-02-22T18:08:56.990Z,53.90
2018-02-22T18:11:25.356Z,54.20
2018-02-22T18:13:52.963Z,54.20
2018-02-22T18:16:20.553Z,54.30
2018-02-22T18:18:49.145Z,54.30
2018-02-22T18:21:16.734Z,54.40
2018-02-22T18:23:46.502Z,54.50
2018-02-22T18:26:14.065Z,54.50
2018-02-22T18:28:43.281Z,54.30
2018-02-22T18:31:10.836Z,54.50
2018-02-22T18:33:38.434Z,54.60
2018-02-22T18:36:06.051Z,54.80
2018-02-22T18:38:39.259Z,54.70
2018-02-22T18:41:06.795Z,55.40
2018-02-22T18:43:40.110Z,55.70
2018-02-22T18:46:07.711Z,55.50
2018-02-22T18:48:35.234Z,55.80
2018-02-22T18:51:02.840Z,55.70
2018-02-22T18:53:30.440Z,55.80
2018-02-22T18:55:57.989Z,55.80
2018-02-22T18:58:25.520Z,55.60
2018-02-22T19:00:53.046Z,55.40
2018-02-22T19:03:21.350Z,55.30
2018-02-22T19:05:50.270Z,55.30
2018-02-22T19:08:17.804Z,55.30
2018-02-22T19:10:45.353Z,55.70
2018-02-22T19:13:12.882Z,55.20
2018-02-22T19:15:41.228Z,55.40
2018-02-22T19:18:08.809Z,55.30
2018-02-22T19:20:36.415Z,55.50
2018-02-22T19:23:03.940Z,55.80
2018-02-22T19:25:32.263Z,55.90
2018-02-22T19:27:59.917Z,55.60
2018-02-22T19:30:27.702Z,55.70
2018-02-22T19:32:55.414Z,55.60
2018-02-22T19:35:23.757Z,55.40
2018-02-22T19:37:51.263Z,55.40
2018-02-22T19:40:18.816Z,55.70
2018-02-22T19:42:46.390Z,55.70
2018-02-22T19:45:14.098Z,56.90
2018-02-22T19:47:41.730Z,58.30
2018-02-22T19:50:09.255Z,59.40
2018-02-22T19:52:37.547Z,60.60
2018-02-22T19:55:05.105Z,60.50
2018-02-22T19:57:42.608Z,62.00
2018-02-22T20:00:10.328Z,63.30
2018-02-22T20:02:37.899Z,64.70
2018-02-22T20:05:06.293Z,66.40
2018-02-22T20:07:33.855Z,66.40
2018-02-22T20:10:01.990Z,67.00
2018-02-22T20:12:29.520Z,67.20
2018-02-22T20:14:57.101Z,67.80
2018-02-22T20:17:24.638Z,67.00
2018-02-22T20:19:52.235Z,66.90
2018-02-22T20:22:20.528Z,67.20
2018-02-22T20:24:48.988Z,63.90
2018-02-22T20:27:16.547Z,63.90
2018-02-22T20:29:44.141Z,66.60
2018-02-22T20:32:11.663Z,66.10
2018-02-22T20:34:39.229Z,65.30
2018-02-22T20:37:06.818Z,64.60
2018-02-22T20:39:35.111Z,65.20
2018-02-22T20:42:03.203Z,65.80
2018-02-22T20:44:30.757Z,64.50
2018-02-22T20:47:09.174Z,64.70
2018-02-22T20:49:36.730Z,65.60
2018-02-22T20:52:04.239Z,65.40
2018-02-22T20:54:32.661Z,66.90
2018-02-22T20:57:00.169Z,66.80
2018-02-22T20:59:27.812Z,67.80
2018-02-22T21:01:55.393Z,66.50
2018-02-22T21:04:22.939Z,65.30
2018-02-22T21:06:50.555Z,65.90
2018-02-22T21:09:18.085Z,66.10
2018-02-22T21:11:47.571Z,66.50
2018-02-22T21:14:15.097Z,66.30
2018-02-22T21:16:42.666Z,65.10
2018-02-22T21:19:10.245Z,65.10
2018-02-22T21:21:37.797Z,65.70
2018-02-22T21:24:05.553Z,65.40
2018-02-22T21:26:35.016Z,66.30
2018-02-22T21:29:02.637Z,66.40
2018-02-22T21:31:30.172Z,66.60
2018-02-22T21:33:57.756Z,70.50
2018-02-22T21:36:25.295Z,66.00
2018-02-22T21:38:52.844Z,65.90
2018-02-22T21:41:20.447Z,65.10
2018-02-22T21:43:48.802Z,66.50
2018-02-22T21:46:16.339Z,66.30
2018-02-22T21:48:43.915Z,66.20
2018-02-22T21:51:11.443Z,66.10
2018-02-22T21:53:38.960Z,64.10
2018-02-22T21:56:07.256Z,64.80
2018-02-22T21:58:34.820Z,64.70
2018-02-22T22:01:02.384Z,65.20
2018-02-22T22:03:29.943Z,63.40
2018-02-22T22:05:57.516Z,63.50
2018-02-22T22:08:25.040Z,63.50
2018-02-22T22:10:53.342Z,64.30
2018-02-22T22:13:20.865Z,64.30
2018-02-22T22:15:49.187Z,63.50
2018-02-22T22:18:16.707Z,63.50
2018-02-22T22:20:45.186Z,63.10
2018-02-22T22:23:13.566Z,61.40
2018-02-22T22:25:41.856Z,62.60
2018-02-22T22:28:09.358Z,61.70
2018-02-22T22:30:36.899Z,62.00
2018-02-22T22:33:04.431Z,63.00
2018-02-22T22:35:32.012Z,62.30
2018-02-22T22:37:59.525Z,62.20
2018-02-22T22:40:27.076Z,62.30
2018-02-22T22:42:54.688Z,62.80
2018-02-22T22:45:22.230Z,62.70
2018-02-22T22:47:49.740Z,63.00
2018-02-22T22:50:17.280Z,62.90
2018-02-22T22:52:44.776Z,62.70
2018-02-22T22:55:12.339Z,62.60
2018-02-22T22:57:39.873Z,62.40
2018-02-22T23:00:07.426Z,62.30
2018-02-22T23:02:34.952Z,62.10
2018-02-22T23:05:02.508Z,61.80
2018-02-22T23:07:30.027Z,62.20
2018-02-22T23:09:57.559Z,62.20
2018-02-22T23:12:25.073Z,62.40
2018-02-22T23:14:53.380Z,64.10
2018-02-22T23:17:20.880Z,64.10
2018-02-22T23:19:48.420Z,64.20
2018-02-22T23:22:16.051Z,64.50
2018-02-22T23:24:43.615Z,64.50
2018-02-22T23:27:11.149Z,65.40
2018-02-22T23:29:39.241Z,65.80
2018-02-22T23:32:06.791Z,65.80
2018-02-22T23:34:34.331Z,66.50
2018-02-22T23:37:02.611Z,66.90
2018-02-22T23:39:30.905Z,66.20
2018-02-22T23:42:04.105Z,66.00
2018-02-22T23:44:31.627Z,67.40
2018-02-22T23:46:59.914Z,65.10
2018-02-22T23:49:28.222Z,65.00
2018-02-22T23:51:55.743Z,65.80
2018-02-22T23:54:24.054Z,62.70
2018-02-22T23:56:51.605Z,62.70
2018-02-22T23:59:19.158Z,62.70
